Terminal Aerodrome Forecast
Issued by NWS Corpus Christi, TX

Current Version | Previous Version | Text Only | Print | Product List | Glossary On
Versions: 1 2 3 4 5 6 7 8 9 10 11 12 13 14
000
FTUS44 KCRP 241500 AAB
TAFVCT
TAF AMD
KVCT 241559Z 2416/2512 VRB04KT P6SM SCT020 SCT030
     FM241700 VRB05KT P6SM VCTS SCT035CB BKN150
     FM242200 10010KT P6SM SCT040
     FM250400 15006KT P6SM SKC=

USA.gov is the U.S. government's official web portal to all federal, state and local government web resources and services.